Flight Track Log - Related Links

Times and Time Zones

All times are in EDT time to prevent confusion due to time zone crossing. See the ASA82 flight status page for this flight to view local times or setup timezone preferences in your user account.


Time Position Orientation Groundspeed Altitude Reporting Facility
EDT Latitude Longitude Course Direction KTS MPH feet Rate Location/Type
Thu 01:41:02 PM 61.2333 -149.6167 100° East 320 368 12,400  Level Anchorage Center
Thu 01:46:05 PM 61.1500 -148.6500 106° East 390 449 23,400 2,017 Climbing Anchorage Center
Thu 01:47:05 PM 61.1167 -148.4167 119° Southeast 400 460 24,600 1,800 Climbing Anchorage Center
Thu 01:48:05 PM 61.0500 -148.1667 117° Southeast 410 472 27,000 2,331 Climbing Anchorage Center
Thu 01:49:06 PM 61.0000 -147.9667 117° Southeast 390 449 29,300 1,785 Climbing Anchorage Center
Thu 01:50:06 PM 60.9500 -147.7667 117° Southeast 380 437 30,600 850 Climbing Anchorage Center
Thu 01:51:06 PM 60.9000 -147.5667 117° Southeast 390 449 31,000 198 Climbing Anchorage Center
Thu 01:52:07 PM 60.8500 -147.3667 119° Southeast 380 437 31,000  Level Anchorage Center
Thu 01:53:07 PM 60.8000 -147.1833 119° Southeast 380 437 31,000  Level Anchorage Center
Thu 01:54:08 PM 60.7500 -147.0000 117° Southeast 380 437 31,000  Level Anchorage Center
Thu 01:55:08 PM 60.7000 -146.8000 119° Southeast 380 437 31,000  Level Anchorage Center
Thu 01:56:08 PM 60.6500 -146.6167 117° Southeast 380 437 31,000  Level Anchorage Center
Thu 01:57:09 PM 60.6000 -146.4167 119° Southeast 380 437 31,000  Level Anchorage Center
Thu 01:58:09 PM 60.5500 -146.2333 117° Southeast 380 437 31,000  Level Anchorage Center
Thu 01:59:10 PM 60.5000 -146.0333 119° Southeast 380 437 31,000  Level Anchorage Center
Thu 02:00:10 PM 60.4500 -145.8500 119° Southeast 380 437 31,000  Level Anchorage Center
Thu 02:01:10 PM 60.4000 -145.6667 117° Southeast 380 437 31,000  Level Anchorage Center
Thu 02:02:11 PM 60.3500 -145.4667 126° Southeast 390 449 31,000  Level Anchorage Center
Thu 02:03:11 PM 60.2833 -145.2833 119° Southeast 380 437 31,000  Level Anchorage Center
Thu 02:04:11 PM 60.2333 -145.1000 117° Southeast 390 449 31,000  Level Anchorage Center
Thu 02:05:11 PM 60.1833 -144.9000 119° Southeast 390 449 31,000  Level Anchorage Center
Thu 02:06:12 PM 60.1333 -144.7167 126° Southeast 390 449 31,000  Level Anchorage Center
Thu 02:07:12 PM 60.0667 -144.5333 117° Southeast 380 437 31,000  Level Anchorage Center
Thu 02:08:12 PM 60.0167 -144.3333 119° Southeast 390 449 31,000  Level Anchorage Center
Thu 02:09:13 PM 59.9667 -144.1500 126° Southeast 380 437 31,000  Level Anchorage Center
Thu 02:10:13 PM 59.9000 -143.9667 118° Southeast 380 437 31,000  Level Anchorage Center
Thu 02:11:13 PM 59.8500 -143.7833 118° Southeast 390 449 31,000  Level Anchorage Center
Thu 02:12:14 PM 59.8000 -143.6000 128° Southeast 380 437 31,000  Level Anchorage Center
Thu 02:13:14 PM 59.7333 -143.4333 118° Southeast 390 449 31,000  Level Anchorage Center
Thu 02:14:14 PM 59.6833 -143.2500 118° Southeast 370 426 31,000  Level Anchorage Center
Thu 02:15:14 PM 59.6333 -143.0667 118° Southeast 390 449 31,000  Level Anchorage Center
Thu 02:16:15 PM 59.5833 -142.8833 128° Southeast 380 437 31,000  Level Anchorage Center
Thu 02:17:16 PM 59.5167 -142.7167 118° Southeast 370 426 31,000  Level Anchorage Center
Thu 02:18:16 PM 59.4667 -142.5333 128° Southeast 380 437 31,000  Level Anchorage Center
Thu 02:19:16 PM 59.4000 -142.3667 118° Southeast 380 437 31,000  Level Anchorage Center
Thu 02:20:17 PM 59.3500 -142.1833 125° Southeast 390 449 31,000  Level Anchorage Center
Thu 02:21:17 PM 59.2833 -142.0000 118° Southeast 390 449 31,000  Level Anchorage Center
Thu 02:22:17 PM 59.2333 -141.8167 125° Southeast 390 449 31,000  Level Anchorage Center
Thu 02:23:18 PM 59.1667 -141.6333 118° Southeast 400 460 31,000  Level Anchorage Center
Thu 02:24:18 PM 59.1167 -141.4500 128° Southeast 390 449 31,000  Level Anchorage Center
Thu 02:25:18 PM 59.0500 -141.2833 125° Southeast 390 449 31,000  Level Anchorage Center
Thu 02:26:18 PM 58.9833 -141.1000 118° Southeast 400 460 31,000  Level Anchorage Center
Thu 02:27:19 PM 58.9333 -140.9167 127° Southeast 400 460 31,000  Level Anchorage Center
Thu 02:28:19 PM 58.8500 -140.7000 118° Southeast 400 460 31,000  Level Anchorage Center
Thu 02:29:20 PM 58.8000 -140.5167 128° Southeast 400 460 31,000  Level Anchorage Center
Thu 02:30:20 PM 58.7333 -140.3500 125° Southeast 400 460 31,000  Level Anchorage Center
Thu 02:31:20 PM 58.6667 -140.1667 127° Southeast 400 460 31,000  Level Anchorage Center
Thu 02:32:20 PM 58.6000 -140.0000 118° Southeast 400 460 31,000  Level Anchorage Center
Thu 02:33:21 PM 58.5500 -139.8167 125° Southeast 400 460 31,000  Level Anchorage Center
Thu 02:34:21 PM 58.4833 -139.6333 125° Southeast 410 472 31,000  Level Anchorage Center
Thu 02:35:22 PM 58.4167 -139.4500 127° Southeast 410 472 31,000  Level Anchorage Center
Thu 02:36:22 PM 58.3500 -139.2833 125° Southeast 410 472 31,000  Level Anchorage Center
Thu 02:37:22 PM 58.2833 -139.1000 125° Southeast 410 472 31,000  Level Anchorage Center
Thu 02:38:23 PM 58.2167 -138.9167 125° Southeast 420 483 31,000  Level Anchorage Center
Thu 02:39:23 PM 58.1500 -138.7333 124° Southeast 430 495 31,000  Level Anchorage Center
Thu 02:40:23 PM 58.0833 -138.5500 131° Southeast 420 483 31,000  Level Anchorage Center
Thu 02:41:24 PM 58.0000 -138.3667 127° Southeast 420 483 31,000  Level Anchorage Center
Thu 02:42:24 PM 57.9333 -138.2000 124° Southeast 430 495 31,000  Level Anchorage Center
Thu 02:43:24 PM 57.8667 -138.0167 124° Southeast 430 495 31,000  Level Anchorage Center
Thu 02:44:25 PM 57.8000 -137.8333 130° Southeast 430 495 31,000  Level Anchorage Center
Thu 02:45:25 PM 57.7167 -137.6500 124° Southeast 440 506 31,000  Level Anchorage Center
Thu 02:46:26 PM 57.6500 -137.4667 124° Southeast 430 495 31,000  Level Anchorage Center
Thu 02:47:26 PM 57.5833 -137.2833 127° Southeast 430 495 31,000  Level Anchorage Center
Thu 02:48:26 PM 57.5167 -137.1167 130° Southeast 430 495 31,000  Level Anchorage Center
Thu 02:49:27 PM 57.4333 -136.9333 124° Southeast 430 495 31,000  Level Anchorage Center
Thu 02:50:27 PM 57.3667 -136.7500 152° Southeast 430 495 31,000  Level Anchorage Center
Thu 02:51:17 PM 57.3167 -136.7000 130° Southeast 430 495 31,000  Level Vancouver Center
Thu 02:52:17 PM 57.2333 -136.5167 124° Southeast 430 495 31,000  Level Vancouver Center
Thu 02:53:17 PM 57.1667 -136.3333 130° Southeast 440 506 31,000  Level Vancouver Center
Thu 02:54:17 PM 57.0833 -136.1500 126° Southeast 440 506 31,000  Level Vancouver Center
Thu 02:55:17 PM 57.0167 -135.9833 124° Southeast 440 506 31,000  Level Vancouver Center
Thu 02:56:17 PM 56.9500 -135.8000 129° Southeast 440 506 31,000  Level Vancouver Center
Thu 02:57:29 PM 56.8333 -135.5333 126° Southeast 440 506 31,000  Level Anchorage Center
Thu 02:58:30 PM 56.7667 -135.3667 137° Southeast 440 506 31,000  Level Anchorage Center
Thu 02:59:30 PM 56.6667 -135.2000 140° Southeast 440 506 31,000  Level Anchorage Center
Thu 03:00:30 PM 56.5667 -135.0500 135° Southeast 440 506 31,000  Level Anchorage Center
Thu 03:01:31 PM 56.4833 -134.9000 135° Southeast 430 495 31,000  Level Anchorage Center
Thu 03:02:31 PM 56.4000 -134.7500 135° Southeast 440 506 31,000  Level Anchorage Center
Thu 03:03:32 PM 56.3167 -134.6000 132° Southeast 430 495 31,000  Level Anchorage Center
Thu 03:04:32 PM 56.2333 -134.4333 140° Southeast 440 506 31,000  Level Anchorage Center
Thu 03:05:32 PM 56.1333 -134.2833 135° Southeast 440 506 31,000  Level Anchorage Center
Thu 03:06:33 PM 56.0500 -134.1333 135° Southeast 450 518 31,000  Level Anchorage Center
Thu 03:07:33 PM 55.9667 -133.9833 140° Southeast 450 518 31,000  Level Anchorage Center
Thu 03:08:33 PM 55.8667 -133.8333 135° Southeast 440 506 31,000  Level Anchorage Center
Thu 03:09:34 PM 55.7833 -133.6833 140° Southeast 450 518 31,000  Level Anchorage Center
Thu 03:10:34 PM 55.6833 -133.5333 134° Southeast 450 518 31,000  Level Anchorage Center
Thu 03:11:35 PM 55.6000 -133.3833 140° Southeast 460 529 31,000  Level Anchorage Center
Thu 03:12:35 PM 55.5000 -133.2333 134° Southeast 450 518 31,000  Level Anchorage Center
Thu 03:13:35 PM 55.4167 -133.0833 139° Southeast 450 518 31,000  Level Anchorage Center
Thu 03:14:36 PM 55.3167 -132.9333 136° Southeast 450 518 31,000  Level Anchorage Center
Thu 03:15:36 PM 55.2167 -132.7667 134° Southeast 450 518 31,000  Level Anchorage Center
Thu 03:16:36 PM 55.1333 -132.6167 139° Southeast 450 518 31,000  Level Anchorage Center
Thu 03:17:37 PM 55.0333 -132.4667 137° Southeast 450 518 31,000  Level Anchorage Center
Thu 03:18:37 PM 54.9500 -132.3333 139° Southeast 450 518 31,000  Level Anchorage Center
Thu 03:19:37 PM 54.8500 -132.1833 134° Southeast 450 518 31,000  Level Anchorage Center
Thu 03:20:38 PM 54.7667 -132.0333 139° Southeast 450 518 31,000  Level Anchorage Center
Thu 03:21:38 PM 54.6667 -131.8833 142° Southeast 460 529 31,000  Level Anchorage Center
Thu 03:22:39 PM 54.5667 -131.7500 139° Southeast 460 529 31,000  Level Anchorage Center
Thu 03:23:39 PM 54.4667 -131.6000 134° Southeast 460 529 31,000  Level Anchorage Center
Thu 03:24:39 PM 54.3833 -131.4500 139° Southeast 460 529 31,000  Level Anchorage Center
Thu 03:25:40 PM 54.2833 -131.3000 150° Southeast 460 529 31,000  Level Anchorage Center
Thu 03:26:51 PM 54.1667 -131.1833 139° Southeast 460 529 31,000  Level Vancouver Center
Thu 03:27:51 PM 54.0667 -131.0333 137° Southeast 460 529 31,000  Level Vancouver Center
Thu 03:28:51 PM 53.9833 -130.9000 135° Southeast 460 529 31,000  Level Vancouver Center
Thu 03:29:51 PM 53.8833 -130.7333 149° Southeast 460 529 31,000  Level Vancouver Center
Thu 03:30:51 PM 53.7667 -130.6167 130° Southeast 460 529 31,000  Level Vancouver Center
Thu 03:31:51 PM 53.6833 -130.4500 145° Southeast 460 529 31,000  Level Vancouver Center
Thu 03:32:51 PM 53.5833 -130.3333 136° Southeast 460 529 31,000  Level Vancouver Center
Thu 03:33:51 PM 53.5000 -130.2000 142° Southeast 460 529 31,000  Level Vancouver Center
Thu 03:34:51 PM 53.3833 -130.0500 136° Southeast 460 529 31,000  Level Vancouver Center
Thu 03:35:51 PM 53.3000 -129.9167 138° Southeast 460 529 31,000  Level Vancouver Center
Thu 03:36:51 PM 53.2000 -129.7667 146° Southeast 460 529 31,000  Level Vancouver Center
Thu 03:37:51 PM 53.0833 -129.6333 133° Southeast 460 529 31,000  Level Vancouver Center
Thu 03:38:51 PM 53.0000 -129.4833 138° Southeast 460 529 31,000  Level Vancouver Center
Thu 03:39:51 PM 52.9000 -129.3333 133° Southeast 460 529 31,000  Level Vancouver Center
Thu 03:40:51 PM 52.8167 -129.1833 138° Southeast 460 529 31,000  Level Vancouver Center
Thu 03:41:51 PM 52.7167 -129.0333 132° Southeast 460 529 31,000  Level Vancouver Center
Thu 03:42:51 PM 52.6333 -128.8833 140° Southeast 470 541 31,000  Level Vancouver Center
Thu 03:43:51 PM 52.5500 -128.7667 138° Southeast 460 529 31,000  Level Vancouver Center
Thu 03:44:51 PM 52.4500 -128.6167 137° Southeast 460 529 31,000  Level Vancouver Center
Thu 03:45:51 PM 52.3500 -128.4667 136° Southeast 460 529 31,000  Level Vancouver Center
Thu 03:46:51 PM 52.2667 -128.3333 137° Southeast 460 529 31,000  Level Vancouver Center
Thu 03:47:51 PM 52.1667 -128.1833 144° Southeast 460 529 31,000  Level Vancouver Center
Thu 03:48:51 PM 52.0667 -128.0667 137° Southeast 460 529 31,000  Level Vancouver Center
Thu 03:49:51 PM 51.9667 -127.9167 132° Southeast 460 529 31,000  Level Vancouver Center
Thu 03:50:51 PM 51.8833 -127.7667 140° Southeast 460 529 31,000  Level Vancouver Center
Thu 03:51:51 PM 51.7833 -127.6333 137° Southeast 460 529 31,000  Level Vancouver Center
Thu 03:52:51 PM 51.6833 -127.4833 140° Southeast 460 529 31,000  Level Vancouver Center
Thu 03:53:51 PM 51.5833 -127.3500 132° Southeast 460 529 31,000  Level Vancouver Center
Thu 03:54:51 PM 51.5000 -127.2000 139° Southeast 460 529 31,000  Level Vancouver Center
Thu 03:55:51 PM 51.4167 -127.0833 138° Southeast 460 529 31,000  Level Vancouver Center
Thu 03:56:51 PM 51.3000 -126.9167 143° Southeast 460 529 31,000  Level Vancouver Center
Thu 03:57:51 PM 51.2167 -126.8167 137° Southeast 460 529 31,000  Level Vancouver Center
Thu 03:58:51 PM 51.1167 -126.6667 135° Southeast 460 529 31,000  Level Vancouver Center
Thu 03:59:51 PM 51.0333 -126.5333 140° Southeast 460 529 31,000  Level Vancouver Center
Thu 04:00:51 PM 50.9333 -126.4000 137° Southeast 460 529 31,000  Level Vancouver Center
Thu 04:01:51 PM 50.8333 -126.2500 140° Southeast 460 529 31,000  Level Vancouver Center
Thu 04:02:51 PM 50.7333 -126.1167 140° Southeast 460 529 31,000  Level Vancouver Center
Thu 04:03:51 PM 50.6333 -125.9833 143° Southeast 460 529 31,000  Level Vancouver Center
Thu 04:04:51 PM 50.5333 -125.8667 140° Southeast 460 529 31,000  Level Vancouver Center
Thu 04:05:51 PM 50.4333 -125.7333 134° Southeast 460 529 31,000  Level Vancouver Center
Thu 04:06:51 PM 50.3500 -125.6000 140° Southeast 460 529 31,000  Level Vancouver Center
Thu 04:07:51 PM 50.2500 -125.4667 139° Southeast 460 529 31,000  Level Vancouver Center
Thu 04:08:51 PM 50.1500 -125.3333 139° Southeast 460 529 31,000  Level Vancouver Center
Thu 04:09:51 PM 50.0500 -125.2000 139° Southeast 460 529 31,000  Level Vancouver Center
Thu 04:10:51 PM 49.9500 -125.0667 142° Southeast 460 529 31,000  Level Vancouver Center
Thu 04:11:51 PM 49.8667 -124.9667 139° Southeast 460 529 31,000  Level Vancouver Center
Thu 04:12:51 PM 49.7667 -124.8333 139° Southeast 460 529 31,000  Level Vancouver Center
Thu 04:13:51 PM 49.6667 -124.7000 139° Southeast 460 529 31,000  Level Vancouver Center
Thu 04:14:51 PM 49.5667 -124.5667 139° Southeast 460 529 31,000  Level Vancouver Center
Thu 04:15:51 PM 49.4667 -124.4333 143° Southeast 460 529 31,000  Level Vancouver Center
Thu 04:16:51 PM 49.3667 -124.3167 139° Southeast 460 529 31,000  Level Vancouver Center
Thu 04:17:51 PM 49.2667 -124.1833 142° Southeast 460 529 31,000  Level Vancouver Center
Thu 04:18:51 PM 49.1833 -124.0833 139° Southeast 460 529 31,000  Level Vancouver Center
Thu 04:19:51 PM 49.0833 -123.9500 139° Southeast 460 529 31,000  Level Vancouver Center
Thu 04:20:51 PM 48.9833 -123.8167 142° Southeast 450 518 31,000  Level Vancouver Center
Thu 04:21:51 PM 48.8833 -123.7000 139° Southeast 460 529 31,000  Level Vancouver Center
Thu 04:22:51 PM 48.7833 -123.5667 147° Southeast 460 529 31,000  Level Vancouver Center
Thu 04:23:51 PM 48.6833 -123.4667 147° Southeast 450 518 31,000  Level Vancouver Center
Thu 04:24:51 PM 48.5833 -123.3667 146° Southeast 450 518 31,000  Level Vancouver Center
Thu 04:25:51 PM 48.4833 -123.2667 150° Southeast 450 518 31,000 -1,150 Level Vancouver Center
Thu 04:26:51 PM 48.3667 -123.1667 145° Southeast 440 506 28,700 -2,026 Descending Vancouver Center
Thu 04:28:22 PM 48.2442 -123.0397 148° Southeast 430 495 25,900 -2,013 Descending Seattle Center
Thu 04:29:23 PM 48.1475 -122.9492 149° Southeast 414 476 23,600 -2,262 Descending Seattle Center
Thu 04:30:24 PM 48.0539 -122.8644 149° Southeast 404 465 21,300 -2,476 Descending Seattle Center
Thu 04:31:29 PM 47.9414 -122.7625 148° Southeast 386 444 18,400 -2,213 Descending Seattle Center
Thu 04:32:26 PM 47.8742 -122.7003 149° Southeast 382 440 16,800 -2,136 Descending Seattle Center
Thu 04:33:27 PM 47.7728 -122.6097 149° Southeast 367 422 14,200 -2,361 Descending Seattle Center
Thu 04:34:28 PM 47.6831 -122.5289 150° Southeast 354 407 12,000 -1,918 Descending Seattle Center
Thu 04:35:29 PM 47.6033 -122.4617 178° South 330 380 10,300 -1,073 Descending Seattle Center
Thu 04:36:31 PM 47.5350 -122.4581 181° South 283 326 9,800 -1,073 Descending Seattle Center
Thu 04:37:32 PM 47.4511 -122.4611 181° South 255 293 8,100 -1,180 Descending Seattle Center
Thu 04:38:33 PM 47.3900 -122.4633 181° South 217 250 7,400 -1,033 Descending Seattle Center
Thu 04:39:34 PM 47.3333 -122.4653 133° Southeast 207 238 6,000 -1,082 Descending Seattle Center
Thu 04:40:35 PM 47.3025 -122.4169 87° East 196 226 5,200 -1,230 Descending Seattle Center
Thu 04:41:36 PM 47.3047 -122.3428 21° North 185 213 3,500 -1,463 Descending Seattle Center
Thu 04:42:38 PM 47.3447 -122.3197 360° North 171 197 2,200 -1,056 Descending Seattle Center
Thu 04:43:41 PM 47.3953 -122.3192 North 148 170 1,300 -787 Descending Seattle Center
Thu 04:44:40 PM 47.4336 -122.3183 359° North 145 167 600 -450 Descending Seattle Center
Thu 04:45:41 PM 47.4758 -122.3189 359° North 145 167 400 -197 Descending Seattle Center

Login

Don't have an account? Register now (free) for customized features, flight alerts, and more!